Time;durP1;ratioP1;P1;durP2;ratioP2;P2;SDS_P1;SDS_P2;PMS_P1;PMS_P2;Temp;Humidity;BMP_temperature;BMP_pressure;BME280_temperature;BME280_humidity;BME280_pressure;Samples;Min_cycle;Max_cycle;Signal;HPM_P1;HPM_P2
2023/09/03 00:00:28;;;;;;;4.00;2.70;;;25.10;93.20;;;;;;4998706;28;20374;-78
2023/09/03 00:02:54;;;;;;;4.68;2.85;;;25.10;93.20;;;;;;5006689;28;20133;-78
2023/09/03 00:05:20;;;;;;;5.63;2.70;;;25.10;93.30;;;;;;4995874;28;20534;-78
2023/09/03 00:07:46;;;;;;;5.68;3.03;;;25.10;93.30;;;;;;4994651;28;20121;-78
2023/09/03 00:10:12;;;;;;;4.90;2.70;;;25.10;93.20;;;;;;4995520;28;20392;-78
2023/09/03 00:12:37;;;;;;;4.55;2.67;;;25.10;93.20;;;;;;4995265;28;20023;-77
2023/09/03 00:15:03;;;;;;;6.22;3.05;;;25.00;93.30;;;;;;4995788;28;20030;-77
2023/09/03 00:17:29;;;;;;;6.70;3.45;;;25.10;93.30;;;;;;4995971;28;20041;-77
2023/09/03 00:19:55;;;;;;;5.90;2.90;;;25.00;93.30;;;;;;4995601;28;20034;-77
2023/09/03 00:22:20;;;;;;;3.67;2.63;;;25.00;93.30;;;;;;4995686;28;20145;-77
2023/09/03 00:24:46;;;;;;;3.88;2.78;;;25.00;93.30;;;;;;5002081;28;20450;-78
2023/09/03 00:27:12;;;;;;;5.28;2.97;;;25.00;93.30;;;;;;5003065;28;20053;-77
2023/09/03 00:29:37;;;;;;;6.65;2.70;;;25.00;93.30;;;;;;4977569;28;20057;-77
2023/09/03 00:32:03;;;;;;;5.78;2.80;;;25.00;93.30;;;;;;4978427;28;20029;-77
2023/09/03 00:34:29;;;;;;;4.93;2.80;;;25.00;93.30;;;;;;4996403;28;20032;-77
2023/09/03 00:36:55;;;;;;;4.82;2.92;;;25.00;93.30;;;;;;4995618;28;20081;-78
2023/09/03 00:39:20;;;;;;;4.50;2.53;;;24.90;93.30;;;;;;4996302;28;20100;-79
2023/09/03 00:41:46;;;;;;;3.50;2.35;;;24.90;93.30;;;;;;4976809;28;20364;-79
2023/09/03 00:44:14;;;;;;;4.50;3.17;;;24.90;93.40;;;;;;4994347;28;20034;-79
2023/09/03 00:46:48;;;;;;;3.90;2.50;;;24.90;93.40;;;;;;4995228;28;20015;-80
2023/09/03 00:49:19;;;;;;;4.15;2.60;;;24.90;93.40;;;;;;4987779;28;20032;-78
2023/09/03 00:51:46;;;;;;;4.00;2.90;;;24.90;93.70;;;;;;4983474;28;20459;-78
2023/09/03 00:54:23;;;;;;;5.65;2.80;;;24.80;93.40;;;;;;4975760;28;20054;-81
2023/09/03 00:56:55;;;;;;;5.20;2.53;;;24.80;93.40;;;;;;4990878;28;20025;-77
2023/09/03 00:59:22;;;;;;;4.60;2.95;;;24.80;93.50;;;;;;4994109;28;20738;-78
2023/09/03 01:01:53;;;;;;;4.43;3.20;;;24.80;93.40;;;;;;4994290;28;20066;-78
2023/09/03 01:04:19;;;;;;;3.35;2.55;;;24.80;93.40;;;;;;4993806;28;20030;-78
2023/09/03 01:06:49;;;;;;;14.02;3.30;;;24.70;93.40;;;;;;4994363;28;20022;-77
2023/09/03 01:09:17;;;;;;;4.28;3.10;;;24.70;93.40;;;;;;4986892;28;20130;-77
2023/09/03 01:12:13;;;;;;;6.82;3.10;;;24.70;93.50;;;;;;4974190;28;20026;-77
2023/09/03 01:15:04;;;;;;;4.00;2.65;;;24.60;93.60;;;;;;4992293;28;20116;-78
2023/09/03 01:17:35;;;;;;;3.95;2.83;;;24.60;93.50;;;;;;4994266;28;20089;-78
2023/09/03 01:20:10;;;;;;;4.20;2.95;;;24.60;93.50;;;;;;4975317;28;20031;-78
2023/09/03 01:22:45;;;;;;;4.82;2.90;;;24.60;93.60;;;;;;4980021;28;20061;-79
2023/09/03 01:25:47;;;;;;;4.25;3.17;;;24.50;93.60;;;;;;4991854;28;20030;-79
2023/09/03 01:28:38;;;;;;;6.78;3.67;;;24.50;93.60;;;;;;4999719;28;20065;-79
2023/09/03 01:31:08;;;;;;;5.28;3.67;;;24.50;93.60;;;;;;4994636;28;20026;-78
2023/09/03 01:33:36;;;;;;;5.03;2.95;;;24.50;93.60;;;;;;4995238;28;20027;-79
2023/09/03 01:36:06;;;;;;;7.93;4.13;;;24.50;93.80;;;;;;4994397;28;20019;-79
2023/09/03 01:38:32;;;;;;;6.30;3.40;;;24.50;93.60;;;;;;4996174;28;20034;-80
2023/09/03 01:40:59;;;;;;;5.50;4.00;;;24.50;93.60;;;;;;4994310;28;20031;-80
2023/09/03 01:43:25;;;;;;;6.88;3.53;;;24.50;93.60;;;;;;4998380;28;20073;-80
2023/09/03 01:46:07;;;;;;;4.20;3.47;;;24.40;93.50;;;;;;4998363;28;20109;-80
2023/09/03 01:49:06;;;;;;;4.28;3.35;;;24.40;93.60;;;;;;5005241;28;20034;-78
2023/09/03 01:51:36;;;;;;;5.15;3.92;;;24.30;93.60;;;;;;4992952;28;20471;-79
2023/09/03 01:54:14;;;;;;;5.75;3.60;;;24.30;93.70;;;;;;4990739;28;20462;-79
2023/09/03 01:56:45;;;;;;;6.13;3.83;;;24.30;93.70;;;;;;4991792;28;20109;-79
2023/09/03 01:59:18;;;;;;;5.40;3.70;;;24.30;93.80;;;;;;4994093;28;20463;-79
2023/09/03 02:01:45;;;;;;;6.55;4.47;;;24.30;93.70;;;;;;4993389;28;20046;-78
2023/09/03 02:04:11;;;;;;;7.22;4.10;;;24.20;93.70;;;;;;4993511;28;20044;-78
2023/09/03 02:06:37;;;;;;;7.40;4.65;;;24.20;93.70;;;;;;4976342;28;20137;-79
2023/09/03 02:09:03;;;;;;;6.78;4.65;;;24.20;93.80;;;;;;4993573;28;20646;-79
2023/09/03 02:11:29;;;;;;;6.72;4.10;;;24.20;93.80;;;;;;4993531;28;20030;-80
2023/09/03 02:13:55;;;;;;;5.25;4.20;;;24.10;93.80;;;;;;4975886;28;20030;-80
2023/09/03 02:16:21;;;;;;;7.32;4.88;;;24.10;93.90;;;;;;5010185;28;20026;-80
2023/09/03 02:18:46;;;;;;;7.57;5.07;;;24.10;93.80;;;;;;5002925;28;20057;-80
2023/09/03 02:21:12;;;;;;;7.07;4.80;;;24.10;93.80;;;;;;4993697;28;20423;-81
2023/09/03 02:23:38;;;;;;;8.13;4.43;;;24.10;93.80;;;;;;4993268;28;20104;-81
2023/09/03 02:26:03;;;;;;;6.72;5.00;;;24.00;93.80;;;;;;4972501;28;20045;-79
2023/09/03 02:28:29;;;;;;;7.50;4.93;;;24.00;93.80;;;;;;4980958;28;20426;-79
2023/09/03 02:30:55;;;;;;;5.07;4.20;;;24.00;93.90;;;;;;4997551;28;20064;-79
2023/09/03 02:33:22;;;;;;;7.72;5.30;;;24.00;93.90;;;;;;4993167;28;20026;-80
2023/09/03 02:35:48;;;;;;;8.38;5.03;;;24.00;94.00;;;;;;4993427;28;20102;-79
2023/09/03 02:38:14;;;;;;;9.65;5.15;;;23.90;93.90;;;;;;4992698;28;20114;-80
2023/09/03 02:40:39;;;;;;;7.88;5.32;;;24.00;94.00;;;;;;4993203;28;20105;-79
2023/09/03 02:43:05;;;;;;;8.65;5.38;;;24.00;94.00;;;;;;4991715;28;20030;-80
2023/09/03 02:45:31;;;;;;;7.95;6.00;;;24.00;94.00;;;;;;4997307;28;20030;-79
2023/09/03 02:47:57;;;;;;;9.57;5.85;;;24.00;93.90;;;;;;5008665;28;20105;-79
2023/09/03 02:50:23;;;;;;;6.22;5.05;;;24.00;93.90;;;;;;4996445;28;20108;-79
2023/09/03 02:52:49;;;;;;;6.60;5.30;;;24.00;93.90;;;;;;5004175;28;20049;-79
2023/09/03 02:55:15;;;;;;;6.28;5.13;;;24.00;93.90;;;;;;4993742;28;20037;-79
2023/09/03 02:57:40;;;;;;;8.15;5.20;;;23.90;93.90;;;;;;4975739;28;20038;-79
2023/09/03 03:00:07;;;;;;;8.43;5.38;;;23.90;94.00;;;;;;4992444;28;20042;-80
2023/09/03 03:02:34;;;;;;;7.70;5.68;;;23.90;94.00;;;;;;4993442;28;21115;-80
2023/09/03 03:05:00;;;;;;;8.77;5.80;;;23.90;94.10;;;;;;5075631;23;20093;-78
2023/09/03 03:07:26;;;;;;;8.57;6.45;;;23.80;94.10;;;;;;4996121;28;20054;-79
2023/09/03 03:09:52;;;;;;;6.80;6.07;;;23.80;94.10;;;;;;4997057;28;20363;-79
2023/09/03 03:12:20;;;;;;;9.38;6.50;;;23.90;94.20;;;;;;4997633;28;20022;-77
2023/09/03 03:14:47;;;;;;;9.15;6.13;;;23.80;94.10;;;;;;4996014;28;20045;-78
2023/09/03 03:17:13;;;;;;;8.70;6.10;;;23.80;94.20;;;;;;4991333;28;20050;-78
2023/09/03 03:19:39;;;;;;;7.40;6.40;;;23.70;94.20;;;;;;4983141;28;20066;-78
2023/09/03 03:22:04;;;;;;;7.95;6.53;;;23.70;94.30;;;;;;4992583;28;20045;-78
2023/09/03 03:24:34;;;;;;;8.15;6.35;;;23.70;94.30;;;;;;4997179;28;20371;-81
2023/09/03 03:27:00;;;;;;;7.13;6.10;;;23.80;94.30;;;;;;4996960;28;20038;-81
2023/09/03 03:29:27;;;;;;;7.88;6.82;;;23.70;94.30;;;;;;4979782;28;20026;-81
2023/09/03 03:31:53;;;;;;;8.73;6.45;;;23.70;94.30;;;;;;4980564;28;20018;-81
2023/09/03 03:34:18;;;;;;;10.50;7.25;;;23.70;94.30;;;;;;4997303;28;20030;-81
2023/09/03 03:36:44;;;;;;;8.13;7.32;;;23.70;94.40;;;;;;4997116;28;20371;-80
2023/09/03 03:39:10;;;;;;;8.38;7.25;;;23.60;94.40;;;;;;4996979;28;20034;-80
2023/09/03 03:41:36;;;;;;;8.07;6.85;;;23.60;94.50;;;;;;4996792;28;20030;-80
2023/09/03 03:44:02;;;;;;;9.50;7.45;;;23.60;94.60;;;;;;4979710;28;20034;-80
2023/09/03 03:46:28;;;;;;;12.68;7.63;;;23.50;94.60;;;;;;4996373;28;20038;-79
2023/09/03 03:48:54;;;;;;;11.68;7.90;;;23.50;94.60;;;;;;4996382;28;20041;-80
2023/09/03 03:51:20;;;;;;;11.30;9.15;;;23.50;94.70;;;;;;4996520;28;20049;-79
2023/09/03 03:53:46;;;;;;;10.48;8.82;;;23.50;94.80;;;;;;4997198;28;20034;-79
2023/09/03 03:56:12;;;;;;;10.00;7.88;;;23.50;94.90;;;;;;4996809;28;20034;-80
2023/09/03 03:58:40;;;;;;;10.43;8.05;;;23.40;94.90;;;;;;4999651;28;20052;-80
2023/09/03 04:01:16;;;;;;;10.75;8.00;;;23.40;94.90;;;;;;5012296;28;20482;-79
2023/09/03 04:03:43;;;;;;;15.48;8.52;;;23.40;94.90;;;;;;5006714;28;20080;-79
2023/09/03 04:06:09;;;;;;;9.90;7.88;;;23.40;94.90;;;;;;4995105;28;20070;-79
2023/09/03 04:08:45;;;;;;;8.50;7.68;;;23.40;94.90;;;;;;4995112;28;20039;-79
2023/09/03 04:11:14;;;;;;;10.25;8.63;;;23.50;94.90;;;;;;4995714;28;20567;-81
2023/09/03 04:13:40;;;;;;;8.98;7.05;;;23.50;94.80;;;;;;4995967;28;20092;-80
2023/09/03 04:16:26;;;;;;;10.15;8.60;;;23.50;94.80;;;;;;4978300;28;20498;-80
2023/09/03 04:18:52;;;;;;;14.30;8.88;;;23.50;94.90;;;;;;4995126;28;20047;-80
2023/09/03 04:21:18;;;;;;;8.23;6.53;;;23.50;94.80;;;;;;4996066;28;20041;-81
2023/09/03 04:23:43;;;;;;;11.82;7.38;;;23.50;94.80;;;;;;4970198;28;20053;-79
2023/09/03 04:26:09;;;;;;;11.23;7.40;;;23.50;94.80;;;;;;4995484;28;20094;-79
2023/09/03 04:28:35;;;;;;;9.82;8.45;;;23.50;94.80;;;;;;4999201;28;20454;-80
2023/09/03 04:31:08;;;;;;;10.75;8.20;;;23.40;94.80;;;;;;4996182;28;20503;-79
2023/09/03 04:33:35;;;;;;;12.63;9.20;;;23.40;94.80;;;;;;4995325;28;20113;-78
2023/09/03 04:36:02;;;;;;;13.00;9.43;;;23.50;94.90;;;;;;4995811;28;20081;-79
2023/09/03 04:38:28;;;;;;;10.30;8.35;;;23.50;94.90;;;;;;4977179;28;20031;-79
2023/09/03 04:40:55;;;;;;;16.60;9.30;;;23.50;94.90;;;;;;4995516;28;20030;-78
2023/09/03 04:43:22;;;;;;;9.57;8.48;;;23.50;94.90;;;;;;4997546;28;20117;-78
2023/09/03 04:45:54;;;;;;;10.52;9.00;;;23.50;94.90;;;;;;4994960;28;20035;-78
2023/09/03 04:48:20;;;;;;;9.70;8.43;;;23.50;95.10;;;;;;4983664;28;20047;-79
2023/09/03 04:50:47;;;;;;;14.32;8.82;;;23.50;94.90;;;;;;4977700;28;20035;-79
2023/09/03 04:53:13;;;;;;;9.52;8.30;;;23.50;94.90;;;;;;5002266;28;20039;-81
2023/09/03 04:55:40;;;;;;;9.98;8.98;;;23.50;94.90;;;;;;4994051;28;20026;-81
2023/09/03 04:58:06;;;;;;;9.32;8.00;;;23.50;94.90;;;;;;4994914;28;20030;-81
2023/09/03 05:00:40;;;;;;;10.82;8.48;;;23.50;94.90;;;;;;4994867;28;20023;-81
2023/09/03 05:03:05;;;;;;;9.45;8.43;;;23.40;95.00;;;;;;4994496;28;20121;-80
2023/09/03 05:05:37;;;;;;;9.57;8.30;;;23.40;94.90;;;;;;4976973;28;20129;-81
2023/09/03 05:08:03;;;;;;;13.77;8.65;;;23.40;95.00;;;;;;4995126;28;20045;-80
2023/09/03 05:10:29;;;;;;;10.70;9.55;;;23.40;95.00;;;;;;4994369;28;20030;-81
2023/09/03 05:12:54;;;;;;;10.60;7.88;;;23.40;95.00;;;;;;4994793;28;20066;-83
2023/09/03 05:15:20;;;;;;;9.25;8.20;;;23.40;95.00;;;;;;4977266;28;20037;-82
2023/09/03 05:17:45;;;;;;;10.05;7.70;;;23.40;95.00;;;;;;4994753;28;20343;-82
2023/09/03 05:20:11;;;;;;;9.55;8.63;;;23.40;95.00;;;;;;4994635;28;20026;-80
2023/09/03 05:22:38;;;;;;;10.95;8.13;;;23.40;95.10;;;;;;4994718;28;20065;-79
2023/09/03 05:25:04;;;;;;;11.95;7.68;;;23.40;95.10;;;;;;4976769;28;20351;-79
2023/09/03 05:27:30;;;;;;;9.88;7.63;;;23.40;95.10;;;;;;4998208;28;20031;-82
2023/09/03 05:29:56;;;;;;;11.18;8.77;;;23.30;95.10;;;;;;4993563;28;20073;-81
2023/09/03 05:32:25;;;;;;;9.73;8.73;;;23.30;95.20;;;;;;4994699;28;20395;-80
2023/09/03 05:34:56;;;;;;;10.95;9.60;;;23.40;95.20;;;;;;4976775;28;20034;-78
2023/09/03 05:37:22;;;;;;;10.13;9.00;;;23.40;95.20;;;;;;4994759;28;20034;-78
2023/09/03 05:39:49;;;;;;;9.68;7.80;;;23.40;95.20;;;;;;4994306;28;20022;-76
2023/09/03 05:42:15;;;;;;;11.98;8.00;;;23.40;95.20;;;;;;4993956;28;20058;-79
2023/09/03 05:44:41;;;;;;;9.63;8.27;;;23.40;95.20;;;;;;4993114;28;20141;-79
2023/09/03 05:47:06;;;;;;;10.32;8.50;;;23.40;95.20;;;;;;4991059;28;20046;-81
2023/09/03 05:49:32;;;;;;;10.27;9.23;;;23.50;95.10;;;;;;4981692;28;20038;-83
2023/09/03 05:52:01;;;;;;;10.40;9.35;;;23.50;95.20;;;;;;4975569;28;20058;-84
2023/09/03 05:54:27;;;;;;;9.73;8.00;;;23.60;95.20;;;;;;4996902;28;20110;-83
2023/09/03 05:56:53;;;;;;;10.27;9.20;;;23.60;95.20;;;;;;4990078;28;20096;-84
2023/09/03 05:59:18;;;;;;;12.27;8.75;;;23.70;95.10;;;;;;5014129;28;20426;-83
2023/09/03 06:01:44;;;;;;;10.27;8.55;;;23.70;95.00;;;;;;4996739;28;20057;-84
2023/09/03 06:04:14;;;;;;;12.52;8.23;;;23.80;95.00;;;;;;4999694;28;20039;-81
2023/09/03 06:06:40;;;;;;;10.15;7.95;;;23.80;95.00;;;;;;4993842;28;20034;-80
2023/09/03 06:09:06;;;;;;;9.98;7.88;;;23.80;94.90;;;;;;4997387;28;20368;-82
2023/09/03 06:11:34;;;;;;;7.93;6.97;;;23.90;94.90;;;;;;4973491;28;20041;-82
2023/09/03 06:14:00;;;;;;;10.18;7.43;;;23.90;94.80;;;;;;4988024;28;20113;-81
2023/09/03 06:16:25;;;;;;;7.57;6.78;;;24.00;94.80;;;;;;4992036;28;20109;-80
2023/09/03 06:18:52;;;;;;;9.38;6.57;;;24.10;94.70;;;;;;4991302;28;20034;-82
2023/09/03 06:21:18;;;;;;;6.47;5.65;;;24.20;94.60;;;;;;4993952;28;20026;-81
2023/09/03 06:23:43;;;;;;;6.22;5.60;;;24.20;94.40;;;;;;4990684;28;20355;-81
2023/09/03 06:26:09;;;;;;;6.35;5.65;;;24.30;94.20;;;;;;4991106;28;20451;-80
2023/09/03 06:28:35;;;;;;;8.98;6.25;;;24.30;94.00;;;;;;4993426;28;20038;-81
2023/09/03 06:31:01;;;;;;;9.85;6.00;;;24.40;93.80;;;;;;4993129;28;20599;-84
2023/09/03 06:33:27;;;;;;;6.03;4.88;;;24.50;93.80;;;;;;4996763;28;20030;-81
2023/09/03 06:35:54;;;;;;;5.75;4.78;;;24.50;93.50;;;;;;4991431;28;20022;-81
2023/09/03 06:38:26;;;;;;;6.03;4.63;;;24.50;93.40;;;;;;4998817;28;20375;-83
2023/09/03 06:40:51;;;;;;;5.82;4.85;;;24.50;93.50;;;;;;4997470;28;20065;-82
2023/09/03 06:43:17;;;;;;;5.65;4.60;;;24.60;93.60;;;;;;4977449;28;20066;-80
2023/09/03 06:45:44;;;;;;;5.40;4.82;;;24.60;93.60;;;;;;4997512;28;20038;-79
2023/09/03 06:48:10;;;;;;;6.78;4.80;;;24.60;93.20;;;;;;4980348;28;20054;-80
2023/09/03 06:50:35;;;;;;;5.55;4.63;;;24.60;93.10;;;;;;4996588;28;20061;-81
2023/09/03 06:53:01;;;;;;;6.70;3.47;;;24.70;93.10;;;;;;4991543;28;20030;-81
2023/09/03 06:55:27;;;;;;;6.13;4.43;;;24.70;93.20;;;;;;4995657;28;20101;-81
2023/09/03 06:57:53;;;;;;;6.07;3.80;;;24.80;93.10;;;;;;4983848;28;20035;-81
2023/09/03 07:00:18;;;;;;;5.65;4.03;;;24.80;92.90;;;;;;4977830;28;20062;-82
2023/09/03 07:02:44;;;;;;;5.95;3.47;;;24.80;92.80;;;;;;4995563;28;20034;-82
2023/09/03 07:05:10;;;;;;;3.67;3.05;;;24.80;92.70;;;;;;4994790;28;20054;-81
2023/09/03 07:07:35;;;;;;;5.65;3.33;;;24.90;92.50;;;;;;4996337;28;20030;-82
2023/09/03 07:10:02;;;;;;;4.70;3.45;;;25.00;92.40;;;;;;4996428;28;20109;-82
2023/09/03 07:12:28;;;;;;;5.50;3.78;;;25.00;92.30;;;;;;4997377;28;20032;-82
2023/09/03 07:14:54;;;;;;;4.45;3.20;;;25.10;92.10;;;;;;4994869;28;20038;-81
2023/09/03 07:17:19;;;;;;;4.65;3.10;;;25.10;92.10;;;;;;4996632;28;20022;-81
2023/09/03 07:19:45;;;;;;;4.90;3.25;;;25.20;91.80;;;;;;4996345;28;20026;-81
2023/09/03 07:22:12;;;;;;;5.03;3.17;;;25.30;91.70;;;;;;4995961;28;20037;-81
2023/09/03 07:24:39;;;;;;;4.75;3.20;;;25.30;91.60;;;;;;4977773;28;20180;-81
2023/09/03 07:27:05;;;;;;;5.05;2.90;;;25.40;91.10;;;;;;4976767;28;20479;-79
2023/09/03 07:29:31;;;;;;;3.95;2.78;;;25.40;91.20;;;;;;4978525;28;20046;-79
2023/09/03 07:31:57;;;;;;;5.90;2.60;;;25.40;91.10;;;;;;4996620;28;20022;-80
2023/09/03 07:34:22;;;;;;;4.30;3.25;;;25.50;91.00;;;;;;4995751;28;20026;-79
2023/09/03 07:36:48;;;;;;;5.47;3.58;;;25.50;91.00;;;;;;4995660;28;20397;-79
2023/09/03 07:39:14;;;;;;;4.55;3.00;;;25.60;91.00;;;;;;4996180;28;20034;-79
2023/09/03 07:41:40;;;;;;;6.10;3.00;;;25.60;91.10;;;;;;4996715;28;20030;-79
2023/09/03 07:44:08;;;;;;;9.07;2.72;;;25.60;90.50;;;;;;4994386;28;20034;-79
2023/09/03 07:46:34;;;;;;;4.20;2.00;;;25.60;90.60;;;;;;4978185;28;20026;-80
2023/09/03 07:49:00;;;;;;;4.70;2.25;;;25.60;90.60;;;;;;4994183;28;20038;-80
2023/09/03 07:51:25;;;;;;;2.65;2.40;;;25.70;90.70;;;;;;4982945;28;20021;-80
2023/09/03 07:53:51;;;;;;;2.92;2.05;;;25.80;90.70;;;;;;4992106;28;20474;-80
2023/09/03 07:56:17;;;;;;;3.38;1.90;;;25.80;90.70;;;;;;4994572;28;20057;-82
2023/09/03 07:58:43;;;;;;;3.55;2.15;;;25.90;90.80;;;;;;4995362;28;20034;-81
2023/09/03 08:01:15;;;;;;;7.07;2.03;;;26.00;90.80;;;;;;4995842;28;20077;-81
2023/09/03 08:03:42;;;;;;;6.30;2.15;;;26.00;90.90;;;;;;4996194;28;20026;-82
2023/09/03 08:06:08;;;;;;;2.78;2.08;;;26.10;90.90;;;;;;4978546;28;20046;-81
2023/09/03 08:08:34;;;;;;;4.68;2.35;;;26.20;90.80;;;;;;4995101;28;20049;-80
2023/09/03 08:11:01;;;;;;;2.70;2.30;;;26.20;90.60;;;;;;4995225;28;20070;-82
2023/09/03 08:13:27;;;;;;;3.13;2.38;;;26.30;90.70;;;;;;4995774;28;20018;-82
2023/09/03 08:15:52;;;;;;;7.30;2.45;;;26.30;90.80;;;;;;4977637;28;20030;-82
2023/09/03 08:18:21;;;;;;;3.72;2.10;;;26.40;90.60;;;;;;4993746;28;20398;-81
2023/09/03 08:20:49;;;;;;;1.70;1.52;;;26.40;90.70;;;;;;4993972;28;20069;-82
2023/09/03 08:23:15;;;;;;;3.40;1.65;;;26.50;90.70;;;;;;4994658;28;20034;-79
2023/09/03 08:25:41;;;;;;;3.17;1.77;;;26.60;90.60;;;;;;4996503;28;20030;-79
2023/09/03 08:28:08;;;;;;;3.22;1.73;;;26.70;90.50;;;;;;4999809;28;20471;-79
2023/09/03 08:30:35;;;;;;;3.17;1.92;;;26.70;90.30;;;;;;5001938;28;20034;-84
2023/09/03 08:33:09;;;;;;;2.60;1.60;;;26.80;90.20;;;;;;4994936;28;20035;-78
2023/09/03 08:35:38;;;;;;;4.07;1.88;;;26.90;90.40;;;;;;4972395;28;20034;-78
2023/09/03 08:38:04;;;;;;;4.22;2.42;;;27.00;90.40;;;;;;4993037;28;20042;-86
2023/09/03 08:40:33;;;;;;;4.43;2.20;;;27.10;90.30;;;;;;4992348;28;20029;-79
2023/09/03 08:42:59;;;;;;;8.18;2.30;;;27.20;90.30;;;;;;4975608;28;20359;-78
2023/09/03 08:45:30;;;;;;;4.40;2.40;;;27.30;89.40;;;;;;4995540;28;20041;-77
2023/09/03 08:47:56;;;;;;;3.17;2.00;;;27.30;89.10;;;;;;4995667;28;20038;-78
2023/09/03 08:50:23;;;;;;;5.40;2.20;;;27.30;88.80;;;;;;4993258;28;20050;-77
2023/09/03 08:52:52;;;;;;;4.28;2.08;;;27.30;89.10;;;;;;4992452;28;20032;-78
2023/09/03 08:55:18;;;;;;;3.97;2.15;;;27.40;89.40;;;;;;4994138;28;20034;-78
2023/09/03 08:57:43;;;;;;;4.22;1.88;;;27.40;89.30;;;;;;4992498;28;20553;-78
2023/09/03 09:00:13;;;;;;;4.07;2.45;;;27.50;89.00;;;;;;4994089;28;20038;-78
2023/09/03 09:02:38;;;;;;;6.40;2.30;;;27.60;88.70;;;;;;4994100;28;20018;-79
2023/09/03 09:05:07;;;;;;;5.28;2.40;;;27.60;88.30;;;;;;4993036;28;20422;-79
2023/09/03 09:07:33;;;;;;;3.33;2.30;;;27.70;88.10;;;;;;4993340;28;20030;-77
2023/09/03 09:10:06;;;;;;;4.13;2.50;;;27.80;88.10;;;;;;4992119;28;20348;-77
2023/09/03 09:13:03;;;;;;;4.53;1.83;;;27.90;87.60;;;;;;4992292;28;20533;-77
2023/09/03 09:15:29;;;;;;;3.35;2.00;;;28.00;88.00;;;;;;4992907;28;20084;-83
2023/09/03 09:17:54;;;;;;;2.65;1.90;;;28.10;88.00;;;;;;4991983;28;20030;-83
2023/09/03 09:20:20;;;;;;;4.32;2.00;;;28.20;87.60;;;;;;4993705;28;20434;-83
2023/09/03 09:22:49;;;;;;;3.03;2.05;;;28.30;87.20;;;;;;4993966;28;20386;-84
2023/09/03 09:25:25;;;;;;;4.00;2.50;;;28.40;86.40;;;;;;4994218;28;20034;-83
2023/09/03 09:27:56;;;;;;;2.72;1.98;;;28.50;85.20;;;;;;4994403;28;20038;-83
2023/09/03 09:30:25;;;;;;;3.53;1.90;;;28.50;85.40;;;;;;5004668;28;20117;-84
2023/09/03 09:33:08;;;;;;;3.40;2.47;;;28.60;84.70;;;;;;4992000;28;20022;-84
2023/09/03 09:35:34;;;;;;;4.65;2.03;;;28.70;84.40;;;;;;5000202;28;20505;-85
2023/09/03 09:38:07;;;;;;;3.38;1.92;;;28.70;84.80;;;;;;4992512;28;20042;-85
2023/09/03 09:40:36;;;;;;;4.82;2.55;;;28.90;84.70;;;;;;4989313;28;20058;-86
2023/09/03 09:43:04;;;;;;;2.53;1.75;;;28.90;84.50;;;;;;4993356;28;20038;-86
2023/09/03 09:45:44;;;;;;;3.33;2.22;;;29.10;84.30;;;;;;4980470;28;20026;-81
2023/09/03 09:48:10;;;;;;;5.57;2.63;;;29.20;84.50;;;;;;4989830;28;20027;-80
2023/09/03 09:50:38;;;;;;;3.08;2.17;;;29.30;83.30;;;;;;4988475;28;20426;-79
2023/09/03 09:53:05;;;;;;;3.97;1.98;;;29.30;82.50;;;;;;4986225;28;20030;-79
2023/09/03 09:55:32;;;;;;;3.00;2.05;;;29.40;83.20;;;;;;4989914;28;20098;-79
2023/09/03 09:58:01;;;;;;;3.97;2.50;;;29.50;83.00;;;;;;4992515;28;20108;-79
2023/09/03 10:00:43;;;;;;;2.97;2.13;;;29.70;83.00;;;;;;4975462;28;20026;-78
2023/09/03 10:03:12;;;;;;;4.60;2.15;;;29.80;82.20;;;;;;4993167;28;20679;-77
2023/09/03 10:05:50;;;;;;;4.95;2.53;;;29.90;82.00;;;;;;4975466;28;20084;-78
2023/09/03 10:08:19;;;;;;;7.50;3.42;;;30.00;82.00;;;;;;4991567;28;20038;-79
2023/09/03 10:10:44;;;;;;;3.60;1.90;;;30.00;80.90;;;;;;4976711;28;20488;-84
2023/09/03 10:13:10;;;;;;;3.70;2.15;;;30.00;81.80;;;;;;4991989;28;20061;-79
2023/09/03 10:15:40;;;;;;;3.38;1.98;;;30.20;81.80;;;;;;4992554;28;20030;-80
2023/09/03 10:18:07;;;;;;;4.95;2.45;;;30.30;81.90;;;;;;4991152;28;20149;-79
2023/09/03 10:20:34;;;;;;;2.63;2.05;;;30.40;81.00;;;;;;4992385;28;20101;-79
2023/09/03 10:23:04;;;;;;;5.10;2.10;;;30.40;81.30;;;;;;4971546;28;20026;-81
2023/09/03 10:25:33;;;;;;;4.30;2.40;;;30.50;81.30;;;;;;4987804;28;20065;-81
2023/09/03 10:28:04;;;;;;;3.50;2.20;;;30.60;81.00;;;;;;4990756;28;20050;-79
2023/09/03 10:30:37;;;;;;;6.18;2.17;;;30.70;79.90;;;;;;4991427;28;20030;-78
2023/09/03 10:33:06;;;;;;;6.38;2.60;;;30.70;79.70;;;;;;4984838;28;20041;-78
2023/09/03 10:35:31;;;;;;;4.40;2.22;;;30.70;80.10;;;;;;4991483;28;20301;-78
2023/09/03 10:37:57;;;;;;;3.13;2.08;;;30.80;80.00;;;;;;4991915;28;20489;-78
2023/09/03 10:40:24;;;;;;;3.13;1.73;;;30.90;79.30;;;;;;4992644;28;20045;-78
2023/09/03 10:42:53;;;;;;;3.28;1.80;;;31.00;78.80;;;;;;4992167;28;20033;-78
2023/09/03 10:45:20;;;;;;;8.40;2.58;;;31.10;79.10;;;;;;4982020;28;20056;-78
2023/09/03 10:48:00;;;;;;;5.47;2.50;;;31.20;78.90;;;;;;4991736;28;20022;-78
2023/09/03 10:50:40;;;;;;;5.22;2.70;;;31.40;78.40;;;;;;4990112;28;20019;-78
2023/09/03 10:53:06;;;;;;;;;;;31.40;78.10;;;;;;4992269;28;20027;-78
2023/09/03 10:55:31;;;;;;;6.63;2.03;;;31.50;77.90;;;;;;4975044;28;19917;-78
2023/09/03 10:58:16;;;;;;;4.38;1.85;;;31.50;78.10;;;;;;4989552;28;20034;-78
2023/09/03 11:01:15;;;;;;;4.47;2.28;;;31.70;77.90;;;;;;4992882;28;20042;-77
2023/09/03 11:03:46;;;;;;;4.35;2.10;;;31.80;77.60;;;;;;4991371;28;20026;-83
2023/09/03 11:06:21;;;;;;;5.78;2.40;;;31.80;77.80;;;;;;4971131;28;20046;-84
2023/09/03 11:08:48;;;;;;;2.95;2.10;;;31.90;77.10;;;;;;4984630;28;20041;-84
2023/09/03 11:11:21;;;;;;;4.05;1.95;;;31.80;77.00;;;;;;4992856;28;20023;-90
2023/09/03 11:13:53;;;;;;;3.55;2.25;;;31.80;76.80;;;;;;4995442;28;20035;-85
2023/09/03 11:16:36;;;;;;;4.05;2.70;;;31.80;76.70;;;;;;4995184;28;20026;-85
2023/09/03 11:19:04;;;;;;;4.35;2.47;;;31.90;76.70;;;;;;4990692;28;20052;-84
2023/09/03 11:21:30;;;;;;;5.20;2.35;;;32.00;76.40;;;;;;5000758;28;20065;-83
2023/09/03 11:24:00;;;;;;;4.57;2.53;;;32.00;76.20;;;;;;4996402;28;20088;-81
2023/09/03 11:26:26;;;;;;;9.27;2.83;;;32.20;76.10;;;;;;4990663;28;20053;-78
2023/09/03 11:28:52;;;;;;;3.95;2.10;;;32.20;76.20;;;;;;4996845;28;20034;-79
2023/09/03 11:31:17;;;;;;;5.03;2.08;;;32.30;76.00;;;;;;4996801;28;20026;-80
2023/09/03 11:33:43;;;;;;;9.40;2.65;;;32.50;75.90;;;;;;5007258;28;20375;-78
2023/09/03 11:36:21;;;;;;;5.57;2.63;;;32.50;75.40;;;;;;5000710;28;20383;-78
2023/09/03 11:38:49;;;;;;;3.30;2.50;;;32.60;75.00;;;;;;5013952;28;20036;-78
2023/09/03 11:41:18;;;;;;;3.03;2.30;;;32.80;75.00;;;;;;4996771;28;20370;-78
2023/09/03 11:44:19;;;;;;;5.00;2.60;;;32.80;74.70;;;;;;4998471;28;20109;-78
2023/09/03 11:47:03;;;;;;;5.18;2.83;;;32.80;74.00;;;;;;4975791;28;20030;-78
2023/09/03 11:49:34;;;;;;;3.88;2.65;;;33.00;73.70;;;;;;4996475;28;20034;-84
2023/09/03 11:52:26;;;;;;;3.22;1.80;;;33.20;73.40;;;;;;4978313;28;20076;-77
2023/09/03 11:54:55;;;;;;;4.60;2.58;;;33.40;73.80;;;;;;4978650;28;20509;-85
2023/09/03 12:00:14;;;;;;;3.15;2.22;;;33.80;73.10;;;;;;4996170;28;20074;-78
2023/09/03 12:02:45;;;;;;;4.07;2.40;;;33.90;73.00;;;;;;4978646;28;20030;-78
2023/09/03 12:05:30;;;;;;;4.47;2.53;;;34.00;72.20;;;;;;4978261;28;20049;-78
2023/09/03 12:08:09;;;;;;;9.50;2.65;;;34.20;71.90;;;;;;4980212;28;20050;-78
2023/09/03 12:10:55;;;;;;;6.40;2.50;;;34.30;71.30;;;;;;5000707;28;20041;-78
2023/09/03 12:13:48;;;;;;;4.60;2.47;;;34.30;71.10;;;;;;4980539;28;20427;-78
2023/09/03 12:16:21;;;;;;;2.78;1.98;;;34.30;70.70;;;;;;4991974;28;20070;-78
2023/09/03 12:19:01;;;;;;;4.53;2.50;;;34.20;71.20;;;;;;4976098;28;20482;-78
2023/09/03 12:21:39;;;;;;;4.15;2.70;;;34.20;71.10;;;;;;4985999;28;20030;-83
2023/09/03 12:24:09;;;;;;;5.07;2.03;;;34.20;70.60;;;;;;4995579;28;20402;-83
2023/09/03 12:26:38;;;;;;;5.07;2.70;;;34.20;71.10;;;;;;4994683;28;20437;-83
2023/09/03 12:29:17;;;;;;;3.35;2.05;;;34.20;71.10;;;;;;4977209;28;20030;-83
2023/09/03 12:31:45;;;;;;;4.00;1.95;;;34.10;70.70;;;;;;4999107;28;20025;-84
2023/09/03 12:34:17;;;;;;;9.65;2.15;;;34.00;70.80;;;;;;5000297;28;20365;-87
2023/09/03 12:37:01;;;;;;;5.50;2.92;;;33.90;71.20;;;;;;4974958;28;20026;-86
2023/09/03 12:42:58;;;;;;;6.80;2.58;;;33.80;71.70;;;;;;4988235;28;20062;-84
2023/09/03 12:45:26;;;;;;;5.70;2.80;;;33.70;71.80;;;;;;4974649;28;20033;-80
2023/09/03 12:47:55;;;;;;;4.80;2.88;;;33.60;71.60;;;;;;4975823;28;20034;-79
2023/09/03 12:50:34;;;;;;;6.93;2.17;;;33.60;71.70;;;;;;4989294;28;20026;-84
2023/09/03 12:53:00;;;;;;;6.13;2.45;;;33.60;71.90;;;;;;4983140;28;20031;-84
2023/09/03 12:55:28;;;;;;;4.20;2.15;;;33.60;72.00;;;;;;4993221;28;20054;-83
2023/09/03 12:57:54;;;;;;;3.92;2.35;;;33.50;72.00;;;;;;4995127;28;20119;-83
2023/09/03 13:00:19;;;;;;;3.80;2.58;;;33.50;72.10;;;;;;4989321;28;20112;-83